Terminal Aerodrome Forecast
Issued by NWS Cheyenne, WY

Home | Current Version | Previous Version | Text Only | Print | Product List | Glossary On
Versions: 1 2 3 4 5 6 7 8 9 10 11 12 13 14 15 16 17 18 19 20 21 22 23 24 25 26 27 28 29 30 31 32 33 34 35 36 37
000
FTUS45 KCYS 260918 AAB
TAFCYS
TAF AMD
KCYS 260918Z 2609/2706 22007KT P6SM BKN006 BKN015
      TEMPO 2609/2612 SCT006
     FM261200 26004KT P6SM SCT040
     FM261700 VRB06KT P6SM SCT200=

USA.gov is the U.S. government's official web portal to all federal, state and local government web resources and services.